Time;durP1;ratioP1;P1;durP2;ratioP2;P2;SDS_P1;SDS_P2;PMS_P1;PMS_P2;Temp;Humidity;BMP_temperature;BMP_pressure;BME280_temperature;BME280_humidity;BME280_pressure;Samples;Min_cycle;Max_cycle;Signal;HPM_P1;HPM_P2
2022/09/10 00:02:07;;;;;;;10.98;9.63;;;14.70;99.90;;;;;;4842586;29;20042;-69
2022/09/10 00:04:33;;;;;;;12.60;10.02;;;14.70;99.90;;;;;;4842507;29;20495;-69
2022/09/10 00:07:00;;;;;;;9.27;8.38;;;14.70;99.90;;;;;;4858751;29;20078;-69
2022/09/10 00:09:26;;;;;;;11.25;9.95;;;14.60;99.90;;;;;;4842152;29;20129;-69
2022/09/10 00:11:52;;;;;;;10.15;9.05;;;14.60;99.90;;;;;;4859282;29;20524;-69
2022/09/10 00:14:20;;;;;;;12.52;10.90;;;14.70;99.90;;;;;;4859984;29;20053;-69
2022/09/10 00:16:47;;;;;;;11.15;9.95;;;14.70;99.90;;;;;;4843459;29;20061;-68
2022/09/10 00:19:13;;;;;;;11.05;9.88;;;14.70;99.90;;;;;;4841401;29;20041;-68
2022/09/10 00:21:39;;;;;;;11.07;9.77;;;14.70;99.90;;;;;;4858584;29;20045;-69
2022/09/10 00:24:05;;;;;;;14.07;10.32;;;14.70;99.90;;;;;;4855843;29;20464;-69
2022/09/10 00:26:36;;;;;;;12.75;10.38;;;14.70;99.90;;;;;;4838119;29;20045;-68
2022/09/10 00:29:05;;;;;;;12.93;10.80;;;14.70;99.90;;;;;;4839535;29;20399;-68
2022/09/10 00:31:31;;;;;;;13.70;10.13;;;14.60;99.90;;;;;;4830007;29;20060;-69
2022/09/10 00:33:58;;;;;;;12.90;10.70;;;14.70;99.90;;;;;;4861585;29;20049;-68
2022/09/10 00:36:29;;;;;;;12.25;9.75;;;14.60;99.90;;;;;;4863448;29;20049;-69
2022/09/10 00:38:58;;;;;;;12.77;11.27;;;14.60;99.90;;;;;;4862285;29;20045;-69
2022/09/10 00:41:24;;;;;;;13.13;10.93;;;14.60;99.90;;;;;;4846137;29;20057;-69
2022/09/10 00:43:56;;;;;;;15.90;11.82;;;14.70;99.90;;;;;;4862878;29;20061;-68
2022/09/10 00:46:44;;;;;;;11.32;10.13;;;14.70;99.90;;;;;;4863567;29;20060;-68
2022/09/10 00:49:16;;;;;;;14.18;12.30;;;14.70;99.90;;;;;;4828772;29;20199;-69
2022/09/10 00:51:45;;;;;;;12.88;11.57;;;14.70;99.90;;;;;;4845472;29;20049;-68
2022/09/10 00:54:19;;;;;;;12.60;10.95;;;14.80;99.90;;;;;;4861032;29;20062;-69
2022/09/10 00:56:55;;;;;;;13.73;11.80;;;14.70;99.90;;;;;;4846456;29;20050;-69
2022/09/10 00:59:25;;;;;;;12.38;11.18;;;14.70;99.90;;;;;;4861882;29;20431;-69
2022/09/10 01:01:51;;;;;;;12.23;11.02;;;14.70;99.90;;;;;;4844502;29;20372;-68
2022/09/10 01:04:17;;;;;;;14.32;12.32;;;14.80;99.90;;;;;;4861789;29;20080;-68
2022/09/10 01:06:45;;;;;;;17.35;11.93;;;14.80;99.90;;;;;;4848198;29;20077;-68
2022/09/10 01:09:13;;;;;;;12.65;11.35;;;14.80;99.90;;;;;;4830908;29;20140;-69
2022/09/10 01:12:06;;;;;;;13.88;12.45;;;14.80;99.90;;;;;;4842859;29;20050;-69
2022/09/10 01:14:55;;;;;;;16.08;12.77;;;14.80;99.90;;;;;;4861057;29;20065;-69
2022/09/10 01:18:02;;;;;;;15.15;12.48;;;14.80;99.90;;;;;;4854875;29;20061;-68
2022/09/10 01:21:06;;;;;;;14.55;13.05;;;14.80;99.90;;;;;;4844650;29;20567;-68
2022/09/10 01:23:59;;;;;;;15.70;12.60;;;14.80;99.90;;;;;;4860895;29;20061;-68
2022/09/10 01:26:39;;;;;;;15.63;12.20;;;14.90;99.90;;;;;;4827989;29;20056;-68
2022/09/10 01:29:16;;;;;;;16.17;14.30;;;14.90;99.90;;;;;;4861077;29;20124;-68
2022/09/10 01:32:07;;;;;;;14.07;12.48;;;14.80;99.90;;;;;;4861475;29;20087;-68
2022/09/10 01:34:53;;;;;;;16.77;14.05;;;14.80;99.90;;;;;;4860112;29;20082;-68
2022/09/10 01:37:24;;;;;;;16.52;13.10;;;14.80;99.90;;;;;;4851572;29;20124;-69
2022/09/10 01:39:52;;;;;;;18.27;14.73;;;14.90;99.90;;;;;;4859721;29;20049;-69
2022/09/10 01:42:25;;;;;;;13.73;11.60;;;14.90;99.90;;;;;;4862631;29;20057;-69
2022/09/10 01:44:51;;;;;;;14.93;13.32;;;14.90;99.90;;;;;;4843654;29;20454;-69
2022/09/10 01:47:26;;;;;;;16.08;13.32;;;14.90;99.90;;;;;;4844916;29;20049;-69
2022/09/10 01:50:28;;;;;;;14.82;13.40;;;14.90;99.90;;;;;;4861707;29;20494;-69
2022/09/10 01:53:23;;;;;;;16.33;13.40;;;14.90;99.90;;;;;;4842185;29;20064;-69
2022/09/10 01:56:02;;;;;;;16.48;13.63;;;14.90;99.90;;;;;;4812114;29;20221;-69
2022/09/10 01:58:36;;;;;;;13.38;11.98;;;14.90;99.90;;;;;;4861378;29;20529;-69
2022/09/10 02:01:23;;;;;;;15.57;13.70;;;14.90;99.90;;;;;;4843387;29;20529;-69
2022/09/10 02:03:54;;;;;;;14.35;12.85;;;15.00;99.90;;;;;;4856340;29;20068;-69
2022/09/10 02:06:27;;;;;;;14.00;12.48;;;14.80;99.90;;;;;;4843379;29;20088;-69
2022/09/10 02:08:55;;;;;;;18.13;12.63;;;14.90;99.90;;;;;;4857397;29;20042;-69
2022/09/10 02:11:21;;;;;;;13.40;12.07;;;14.90;99.90;;;;;;4847596;29;20077;-69
2022/09/10 02:13:47;;;;;;;16.00;13.40;;;14.90;99.90;;;;;;4844261;29;20092;-68
2022/09/10 02:16:28;;;;;;;15.10;13.60;;;15.00;99.90;;;;;;4858203;29;20173;-69
2022/09/10 02:18:55;;;;;;;15.30;12.32;;;14.80;99.90;;;;;;4861816;29;20102;-69
2022/09/10 02:21:24;;;;;;;17.05;13.02;;;15.00;99.90;;;;;;4843701;29;20147;-69
2022/09/10 02:23:55;;;;;;;18.25;14.50;;;15.00;99.90;;;;;;4860538;29;20054;-68
2022/09/10 02:26:22;;;;;;;15.85;13.98;;;15.00;99.90;;;;;;4843123;29;20105;-69
2022/09/10 02:28:51;;;;;;;17.10;13.55;;;14.90;99.90;;;;;;4855608;29;20049;-69
2022/09/10 02:31:22;;;;;;;15.45;13.80;;;14.90;99.90;;;;;;4835391;29;20431;-68
2022/09/10 02:33:47;;;;;;;18.13;14.48;;;14.90;99.90;;;;;;4830004;29;20402;-68
2022/09/10 02:36:13;;;;;;;20.25;14.38;;;14.90;99.90;;;;;;4858996;29;20053;-69
2022/09/10 02:38:39;;;;;;;16.45;14.10;;;14.90;99.90;;;;;;4844586;29;20514;-68
2022/09/10 02:41:04;;;;;;;20.42;14.63;;;14.90;99.90;;;;;;4860065;29;20166;-68
2022/09/10 02:43:30;;;;;;;16.27;14.55;;;14.90;99.90;;;;;;4842876;29;20048;-69
2022/09/10 02:45:58;;;;;;;18.67;14.07;;;14.90;99.90;;;;;;4844027;29;20464;-69
2022/09/10 02:48:26;;;;;;;20.10;15.00;;;14.90;99.90;;;;;;4842247;29;20531;-70
2022/09/10 02:50:53;;;;;;;17.30;14.70;;;14.80;99.90;;;;;;4842283;29;20447;-69
2022/09/10 02:53:19;;;;;;;17.55;14.93;;;14.90;99.90;;;;;;4828954;29;20137;-69
2022/09/10 02:55:46;;;;;;;18.92;14.55;;;14.90;99.90;;;;;;4860490;29;20049;-69
2022/09/10 02:58:13;;;;;;;19.27;15.07;;;14.90;99.90;;;;;;4861424;29;20128;-69
2022/09/10 03:00:39;;;;;;;17.27;13.95;;;14.90;99.90;;;;;;4843703;29;20567;-68
2022/09/10 03:03:05;;;;;;;16.08;14.35;;;14.90;99.90;;;;;;4859559;29;20056;-69
2022/09/10 03:05:31;;;;;;;15.85;13.30;;;14.90;99.90;;;;;;4860199;29;20045;-69
2022/09/10 03:07:57;;;;;;;21.85;14.18;;;14.90;99.90;;;;;;4858389;29;20048;-68
2022/09/10 03:10:23;;;;;;;18.92;14.68;;;14.90;99.90;;;;;;4858734;29;20463;-69
2022/09/10 03:12:49;;;;;;;20.08;13.70;;;14.90;99.90;;;;;;4860394;29;20045;-69
2022/09/10 03:15:15;;;;;;;16.45;14.70;;;14.90;99.90;;;;;;4860244;29;20073;-69
2022/09/10 03:17:40;;;;;;;18.08;14.60;;;14.90;99.90;;;;;;4829102;29;20147;-69
2022/09/10 03:20:06;;;;;;;17.08;14.45;;;14.80;99.90;;;;;;4825636;29;20177;-69
2022/09/10 03:22:32;;;;;;;16.88;14.50;;;14.90;99.90;;;;;;4824505;29;20061;-69
2022/09/10 03:25:04;;;;;;;20.23;15.07;;;14.80;99.90;;;;;;4840873;29;20050;-69
2022/09/10 03:27:29;;;;;;;18.65;15.20;;;14.90;99.90;;;;;;4824525;29;20509;-69
2022/09/10 03:29:55;;;;;;;17.10;14.43;;;14.80;99.90;;;;;;4825411;29;20054;-69
2022/09/10 03:32:21;;;;;;;16.92;14.18;;;14.90;99.90;;;;;;4841946;29;20121;-69
2022/09/10 03:34:48;;;;;;;20.35;14.60;;;14.90;99.90;;;;;;4800839;29;20085;-69
2022/09/10 03:37:14;;;;;;;16.85;14.80;;;14.90;99.90;;;;;;4828500;29;20130;-69
2022/09/10 03:39:40;;;;;;;18.05;15.45;;;14.90;99.90;;;;;;4837594;29;20125;-69
2022/09/10 03:42:06;;;;;;;15.73;13.68;;;14.90;99.90;;;;;;4824190;29;20089;-69
2022/09/10 03:44:32;;;;;;;16.55;14.27;;;14.90;99.90;;;;;;4830389;29;20081;-69
2022/09/10 03:46:59;;;;;;;18.00;14.35;;;14.90;99.90;;;;;;4839685;29;20414;-69
2022/09/10 03:49:25;;;;;;;19.77;14.65;;;14.90;99.90;;;;;;4816867;29;20058;-69
2022/09/10 03:51:51;;;;;;;19.75;14.93;;;14.90;99.90;;;;;;4808274;29;20524;-69
2022/09/10 03:54:16;;;;;;;18.40;14.25;;;14.90;99.90;;;;;;4833774;29;20046;-69
2022/09/10 03:56:43;;;;;;;16.92;15.05;;;14.90;99.90;;;;;;4820609;29;20492;-69
2022/09/10 03:59:08;;;;;;;15.63;13.90;;;15.00;99.90;;;;;;4831772;29;20049;-69
2022/09/10 04:01:34;;;;;;;17.02;14.38;;;15.00;99.90;;;;;;4825844;29;20132;-69
2022/09/10 04:04:01;;;;;;;18.48;14.50;;;15.00;99.90;;;;;;4810820;29;20054;-69
2022/09/10 04:06:27;;;;;;;19.08;14.60;;;15.00;99.90;;;;;;4842132;29;20114;-69
2022/09/10 04:08:54;;;;;;;16.92;12.77;;;15.00;99.90;;;;;;4844535;29;20415;-68
2022/09/10 04:11:22;;;;;;;17.45;14.27;;;15.00;99.90;;;;;;4844935;29;20111;-69
2022/09/10 04:13:48;;;;;;;19.05;15.10;;;15.00;99.90;;;;;;4842197;29;20045;-69
2022/09/10 04:16:15;;;;;;;19.95;14.75;;;15.00;99.90;;;;;;4813675;29;20703;-69
2022/09/10 04:18:43;;;;;;;17.23;14.50;;;15.00;99.90;;;;;;4847247;29;20049;-69
2022/09/10 04:21:56;;;;;;;18.98;15.73;;;15.00;99.90;;;;;;4840312;29;20045;-69
2022/09/10 04:24:25;;;;;;;21.58;15.50;;;15.10;99.90;;;;;;4863621;29;20062;-69
2022/09/10 04:26:56;;;;;;;19.60;14.38;;;15.00;99.90;;;;;;4862806;29;20053;-69
2022/09/10 04:29:47;;;;;;;18.77;13.95;;;15.00;99.90;;;;;;4817875;29;20110;-69
2022/09/10 04:32:13;;;;;;;19.05;14.75;;;15.00;99.90;;;;;;4791566;29;20075;-69
2022/09/10 04:34:39;;;;;;;23.73;15.35;;;15.10;99.90;;;;;;4806452;29;20046;-69
2022/09/10 04:37:11;;;;;;;18.67;14.68;;;15.00;99.90;;;;;;4804846;29;20069;-69
2022/09/10 04:40:27;;;;;;;21.08;15.18;;;15.00;99.90;;;;;;4809716;29;20061;-69
2022/09/10 04:43:43;;;;;;;20.20;15.70;;;15.00;99.90;;;;;;4823814;29;20592;-69
2022/09/10 04:46:19;;;;;;;21.30;15.63;;;15.10;99.90;;;;;;4799201;29;20054;-69
2022/09/10 04:48:45;;;;;;;20.88;15.32;;;15.10;99.90;;;;;;4818241;29;20058;-69
2022/09/10 04:51:14;;;;;;;23.00;15.50;;;15.10;99.90;;;;;;4808406;29;20046;-69
2022/09/10 04:53:44;;;;;;;21.00;15.48;;;15.10;99.90;;;;;;4808400;29;20062;-69
2022/09/10 04:56:09;;;;;;;22.05;15.68;;;15.10;99.90;;;;;;4808547;29;20134;-68
2022/09/10 04:58:35;;;;;;;25.80;16.27;;;15.10;99.90;;;;;;4809102;29;20223;-68
2022/09/10 05:01:01;;;;;;;21.77;15.52;;;15.10;99.90;;;;;;4839199;29;20491;-69
2022/09/10 05:03:27;;;;;;;27.27;16.90;;;15.10;99.90;;;;;;4854583;29;20057;-69
2022/09/10 05:05:52;;;;;;;22.63;15.93;;;15.20;99.90;;;;;;4862994;29;20058;-69
2022/09/10 05:08:18;;;;;;;23.67;16.85;;;15.20;99.90;;;;;;4845423;29;20132;-69
2022/09/10 05:10:44;;;;;;;28.77;16.40;;;15.20;99.90;;;;;;4849128;29;20041;-69
2022/09/10 05:13:10;;;;;;;21.67;15.73;;;15.10;99.90;;;;;;4846205;29;20456;-69
2022/09/10 05:15:38;;;;;;;26.73;17.52;;;15.10;99.90;;;;;;4843829;29;20057;-69
2022/09/10 05:18:04;;;;;;;24.13;16.08;;;15.20;99.90;;;;;;4861539;29;20128;-69
2022/09/10 05:20:30;;;;;;;25.67;16.38;;;15.20;99.90;;;;;;4861845;29;20164;-68
2022/09/10 05:22:56;;;;;;;28.77;18.10;;;15.20;99.90;;;;;;4859664;29;20493;-69
2022/09/10 05:25:23;;;;;;;28.75;16.65;;;15.20;99.90;;;;;;4844987;29;20128;-69
2022/09/10 05:27:50;;;;;;;24.88;16.30;;;15.20;99.90;;;;;;4851694;29;20120;-69
2022/09/10 05:30:16;;;;;;;24.73;16.13;;;15.30;99.90;;;;;;4830495;29;20049;-68
2022/09/10 05:32:42;;;;;;;26.33;17.30;;;15.30;99.90;;;;;;4845303;29;20059;-69
2022/09/10 05:35:08;;;;;;;25.25;16.23;;;15.30;99.90;;;;;;4860701;29;20049;-69
2022/09/10 05:37:34;;;;;;;25.85;16.95;;;15.30;99.90;;;;;;4860629;29;20110;-69
2022/09/10 05:40:01;;;;;;;23.60;16.75;;;15.30;99.90;;;;;;4861502;29;20053;-69
2022/09/10 05:42:27;;;;;;;26.23;17.77;;;15.40;99.90;;;;;;4860981;29;20052;-70
2022/09/10 05:44:53;;;;;;;25.45;17.83;;;15.40;99.90;;;;;;4859133;29;20049;-69
2022/09/10 05:47:18;;;;;;;25.30;17.13;;;15.40;99.90;;;;;;4861256;29;20113;-68
2022/09/10 05:49:46;;;;;;;30.33;17.80;;;15.40;99.90;;;;;;4859061;29;20157;-68
2022/09/10 05:52:12;;;;;;;22.90;16.13;;;15.40;99.90;;;;;;4844455;29;20069;-69
2022/09/10 05:54:37;;;;;;;24.98;17.40;;;15.40;99.90;;;;;;4855829;29;20057;-69
2022/09/10 05:57:03;;;;;;;29.33;18.15;;;15.50;99.90;;;;;;4861272;29;20049;-68
2022/09/10 05:59:29;;;;;;;27.08;16.75;;;15.50;99.90;;;;;;4861402;29;20070;-69
2022/09/10 06:01:54;;;;;;;30.15;18.33;;;15.50;99.90;;;;;;4854624;29;20042;-68
2022/09/10 06:04:20;;;;;;;24.77;17.70;;;15.50;99.90;;;;;;4855808;29;20057;-69
2022/09/10 06:06:47;;;;;;;30.75;18.85;;;15.50;99.90;;;;;;4853260;29;20057;-68
2022/09/10 06:09:13;;;;;;;28.35;18.52;;;15.50;99.90;;;;;;4853502;29;20057;-68
2022/09/10 06:11:40;;;;;;;27.17;18.25;;;15.60;99.90;;;;;;4840703;29;20061;-68
2022/09/10 06:14:07;;;;;;;34.53;19.10;;;15.60;99.90;;;;;;4859165;29;20085;-68
2022/09/10 06:16:33;;;;;;;29.20;18.60;;;15.60;99.90;;;;;;4857241;29;20057;-68
2022/09/10 06:18:59;;;;;;;29.75;18.40;;;15.60;99.90;;;;;;4855612;29;20452;-68
2022/09/10 06:21:28;;;;;;;34.78;19.10;;;15.70;99.90;;;;;;4852201;29;20106;-68
2022/09/10 06:23:54;;;;;;;28.02;18.88;;;15.70;99.90;;;;;;4857990;29;20053;-69
2022/09/10 06:26:20;;;;;;;27.55;17.83;;;15.70;99.90;;;;;;4844597;29;20050;-69
2022/09/10 06:28:46;;;;;;;25.15;17.83;;;15.70;99.90;;;;;;4854744;29;20054;-68
2022/09/10 06:31:16;;;;;;;29.65;19.83;;;15.80;99.90;;;;;;4861066;29;20052;-69
2022/09/10 06:33:46;;;;;;;24.50;17.67;;;15.70;99.90;;;;;;4842137;29;20502;-69
2022/09/10 06:36:12;;;;;;;25.50;18.25;;;15.80;99.90;;;;;;4844182;29;20121;-69
2022/09/10 06:38:38;;;;;;;26.67;18.58;;;15.80;99.90;;;;;;4844412;29;20053;-69
2022/09/10 06:41:06;;;;;;;27.88;18.30;;;15.90;99.90;;;;;;4860237;29;20054;-69
2022/09/10 06:43:35;;;;;;;28.70;18.92;;;15.90;99.90;;;;;;4860524;29;20101;-69
2022/09/10 06:46:01;;;;;;;26.20;18.05;;;15.90;99.90;;;;;;4860582;29;20050;-69
2022/09/10 06:48:27;;;;;;;25.88;18.58;;;15.90;99.90;;;;;;4860696;29;20141;-68
2022/09/10 06:51:01;;;;;;;30.45;19.85;;;15.90;99.90;;;;;;4844300;29;20092;-69
2022/09/10 06:53:28;;;;;;;30.92;19.45;;;15.90;99.90;;;;;;4843622;29;20525;-69
2022/09/10 06:55:54;;;;;;;27.98;18.00;;;15.90;99.90;;;;;;4840987;29;20531;-69
2022/09/10 06:58:22;;;;;;;26.08;17.73;;;16.00;99.90;;;;;;4861292;29;20053;-67
2022/09/10 07:00:48;;;;;;;24.77;17.92;;;16.10;99.90;;;;;;4861111;29;20053;-68
2022/09/10 07:03:15;;;;;;;28.70;18.98;;;16.10;99.90;;;;;;4861181;29;20106;-68
2022/09/10 07:05:42;;;;;;;23.75;17.50;;;16.10;99.90;;;;;;4861013;29;20574;-69
2022/09/10 07:08:11;;;;;;;25.40;17.77;;;16.10;99.90;;;;;;4861211;29;20136;-67
2022/09/10 07:10:37;;;;;;;26.92;18.38;;;16.20;99.90;;;;;;4843260;29;20064;-68
2022/09/10 07:13:03;;;;;;;27.02;19.15;;;16.20;99.90;;;;;;4860689;29;20098;-68
2022/09/10 07:15:29;;;;;;;26.08;17.73;;;16.30;99.90;;;;;;4844194;29;20053;-68
2022/09/10 07:17:55;;;;;;;22.55;17.05;;;16.30;99.90;;;;;;4844221;29;20129;-68
2022/09/10 07:20:46;;;;;;;24.65;18.63;;;16.30;99.90;;;;;;4844369;29;20384;-68
2022/09/10 07:23:14;;;;;;;22.63;17.35;;;16.40;99.90;;;;;;4839038;29;20064;-67
2022/09/10 07:25:40;;;;;;;25.30;17.35;;;16.40;99.90;;;;;;4837654;29;20053;-68
2022/09/10 07:28:12;;;;;;;27.77;18.35;;;16.30;99.90;;;;;;4840401;29;20065;-68
2022/09/10 07:31:22;;;;;;;26.70;17.63;;;16.40;99.90;;;;;;4858992;29;20044;-68
2022/09/10 07:47:55;;;;;;;20.73;15.25;;;16.60;99.90;;;;;;5701373;24;20398;-69
2022/09/10 07:50:24;;;;;;;21.00;15.18;;;16.80;99.90;;;;;;4824892;29;20041;-68
2022/09/10 07:52:51;;;;;;;21.08;15.15;;;17.00;99.90;;;;;;4825043;29;20046;-67
2022/09/10 07:55:45;;;;;;;17.02;13.32;;;17.20;99.90;;;;;;4806725;29;20045;-69
2022/09/10 07:58:11;;;;;;;18.63;13.82;;;17.40;99.90;;;;;;4776101;29;20081;-68
2022/09/10 08:00:37;;;;;;;18.77;13.50;;;17.60;99.90;;;;;;4841981;29;20089;-67
2022/09/10 08:03:03;;;;;;;17.00;13.85;;;17.80;99.90;;;;;;4824159;29;20574;-69
2022/09/10 08:05:30;;;;;;;19.08;14.05;;;17.90;99.90;;;;;;4822390;29;20132;-68
2022/09/10 08:12:15;;;;;;;16.75;12.50;;;18.10;99.90;;;;;;4784163;30;20118;-69
2022/09/10 08:14:41;;;;;;;15.80;12.70;;;18.10;99.90;;;;;;4770102;30;20090;-69
2022/09/10 08:17:22;;;;;;;16.05;13.05;;;18.00;99.90;;;;;;4770211;30;20182;-67
2022/09/10 08:19:50;;;;;;;14.23;12.35;;;18.00;99.90;;;;;;4770386;30;20055;-67
2022/09/10 08:26:08;;;;;;;14.40;12.07;;;18.00;99.90;;;;;;4783005;30;20084;-67
2022/09/10 08:28:34;;;;;;;19.25;13.48;;;18.00;99.90;;;;;;4770105;30;20055;-69
2022/09/10 08:31:20;;;;;;;17.92;13.68;;;18.10;99.90;;;;;;4770244;30;20142;-68
2022/09/10 08:33:51;;;;;;;14.70;12.93;;;18.10;99.90;;;;;;4785188;29;20104;-69
2022/09/10 08:36:23;;;;;;;17.20;12.60;;;18.20;99.90;;;;;;4784407;29;20059;-69
2022/09/10 08:38:53;;;;;;;12.73;11.02;;;18.40;99.90;;;;;;4794745;29;20056;-69
2022/09/10 08:41:38;;;;;;;15.30;11.75;;;18.50;99.90;;;;;;4809099;29;20127;-69
2022/09/10 08:44:26;;;;;;;14.77;12.18;;;18.60;99.90;;;;;;4840681;29;20110;-69
2022/09/10 08:47:09;;;;;;;17.17;12.90;;;18.60;99.90;;;;;;4824839;29;20068;-68
2022/09/10 08:50:11;;;;;;;14.60;12.02;;;18.50;99.90;;;;;;4826569;29;20058;-68
2022/09/10 08:52:47;;;;;;;14.68;11.85;;;18.30;99.90;;;;;;4827826;29;20057;-68
2022/09/10 08:55:19;;;;;;;13.70;11.05;;;18.20;99.90;;;;;;4828246;29;20053;-68
2022/09/10 08:57:51;;;;;;;13.57;9.85;;;18.20;99.90;;;;;;4827472;29;20058;-68
2022/09/10 09:00:22;;;;;;;10.40;8.32;;;18.20;99.90;;;;;;4826979;29;20153;-69
2022/09/10 09:03:08;;;;;;;9.50;7.70;;;18.30;99.90;;;;;;4840228;29;20062;-68
2022/09/10 09:06:04;;;;;;;10.35;8.18;;;18.30;99.90;;;;;;4840444;29;20089;-68
2022/09/10 09:08:51;;;;;;;8.93;7.15;;;18.40;99.90;;;;;;4825299;29;20057;-68
2022/09/10 09:11:31;;;;;;;7.18;5.60;;;18.50;99.90;;;;;;4827640;29;20061;-68
2022/09/10 09:14:28;;;;;;;7.85;5.90;;;18.70;99.90;;;;;;4827737;29;20057;-69
2022/09/10 09:17:12;;;;;;;7.78;6.97;;;18.80;99.90;;;;;;4826455;29;20060;-66
2022/09/10 09:20:09;;;;;;;9.15;6.75;;;19.00;99.90;;;;;;4842564;29;20461;-68
2022/09/10 09:22:59;;;;;;;6.68;5.75;;;19.00;99.90;;;;;;4827079;29;20057;-68
2022/09/10 09:29:43;;;;;;;9.90;6.65;;;19.20;99.90;;;;;;4827713;29;20141;-68
2022/09/10 09:32:12;;;;;;;7.75;6.32;;;19.30;99.90;;;;;;4806825;29;20046;-69
2022/09/10 09:34:58;;;;;;;10.40;6.78;;;19.50;99.90;;;;;;4827218;29;20445;-67
2022/09/10 09:37:33;;;;;;;7.55;6.20;;;19.60;99.90;;;;;;4827212;29;20136;-67
2022/09/10 09:44:11;;;;;;;6.80;5.18;;;19.70;99.90;;;;;;4844106;29;20239;-67
2022/09/10 09:46:40;;;;;;;6.50;5.80;;;19.80;99.90;;;;;;4825125;29;20058;-67
2022/09/10 09:49:31;;;;;;;9.57;7.00;;;19.90;99.90;;;;;;4843993;29;20050;-67
2022/09/10 09:52:24;;;;;;;7.13;6.50;;;20.10;99.90;;;;;;4826322;29;20058;-68
2022/09/10 09:55:05;;;;;;;6.28;4.10;;;20.30;99.90;;;;;;4811043;29;20335;-67
2022/09/10 09:57:31;;;;;;;4.45;4.03;;;20.50;99.90;;;;;;4812207;29;20065;-67
2022/09/10 10:00:14;;;;;;;6.80;4.45;;;20.50;99.90;;;;;;4826751;29;20056;-68
2022/09/10 10:02:40;;;;;;;6.50;4.80;;;20.50;99.90;;;;;;4842849;29;20053;-69
2022/09/10 10:05:23;;;;;;;5.70;4.65;;;20.70;99.90;;;;;;4844073;29;20072;-68
2022/09/10 10:07:49;;;;;;;4.55;4.00;;;20.50;99.90;;;;;;4797200;29;20124;-67
2022/09/10 10:10:29;;;;;;;5.30;4.30;;;20.40;99.90;;;;;;4827177;29;20122;-68
2022/09/10 10:12:55;;;;;;;6.72;4.60;;;20.40;99.90;;;;;;4841261;29;20054;-68
2022/09/10 10:15:36;;;;;;;9.10;5.00;;;20.40;99.90;;;;;;4826312;29;20046;-68
2022/09/10 10:18:35;;;;;;;8.52;6.05;;;20.30;99.90;;;;;;4824700;29;20102;-68
2022/09/10 10:21:36;;;;;;;7.20;5.45;;;20.30;99.90;;;;;;4842854;29;20097;-68
2022/09/10 10:24:02;;;;;;;7.55;6.50;;;20.30;99.90;;;;;;4826813;29;20098;-68
2022/09/10 10:26:53;;;;;;;7.20;6.20;;;20.30;99.90;;;;;;4825902;29;20483;-68
2022/09/10 10:29:19;;;;;;;6.85;5.85;;;20.40;99.90;;;;;;4826683;29;20058;-66
2022/09/10 10:31:47;;;;;;;7.65;6.22;;;20.50;99.90;;;;;;4827041;29;20165;-68
2022/09/10 10:34:32;;;;;;;6.15;5.55;;;20.60;99.90;;;;;;4827590;29;20081;-68
2022/09/10 10:37:37;;;;;;;7.07;5.50;;;20.60;99.90;;;;;;4826782;29;20093;-67
2022/09/10 10:40:25;;;;;;;9.43;5.78;;;20.70;99.90;;;;;;4825331;29;20054;-68
2022/09/10 10:43:29;;;;;;;7.65;5.55;;;20.80;99.90;;;;;;4826669;29;20142;-68
2022/09/10 10:49:47;;;;;;;11.45;7.15;;;20.90;99.90;;;;;;4841838;29;20510;-68
2022/09/10 10:52:37;;;;;;;8.02;6.22;;;21.10;99.90;;;;;;4841160;29;20073;-68
2022/09/10 10:55:30;;;;;;;8.35;6.43;;;21.10;99.90;;;;;;4825121;29;20084;-68
2022/09/10 11:01:37;;;;;;;7.10;5.63;;;21.10;99.90;;;;;;4842486;29;20062;-67
2022/09/10 11:08:46;;;;;;;6.80;5.55;;;20.80;99.90;;;;;;4839146;29;20076;-66
2022/09/10 11:11:43;;;;;;;6.70;5.80;;;20.70;99.90;;;;;;4814398;29;20440;-67
2022/09/10 11:14:22;;;;;;;6.30;5.70;;;20.60;99.90;;;;;;4818609;29;20061;-68
2022/09/10 11:17:02;;;;;;;6.97;6.20;;;20.60;99.90;;;;;;4853497;29;20425;-69
2022/09/10 11:19:57;;;;;;;7.80;6.07;;;20.60;99.90;;;;;;4827414;29;20068;-67
2022/09/10 11:22:29;;;;;;;8.80;5.68;;;20.50;99.90;;;;;;4815702;29;20329;-66
2022/09/10 11:25:14;;;;;;;6.13;5.50;;;20.50;99.90;;;;;;4843010;29;20142;-67
2022/09/10 11:27:45;;;;;;;6.93;5.63;;;20.60;99.90;;;;;;4842322;29;20057;-67
2022/09/10 11:30:15;;;;;;;7.78;6.22;;;20.60;99.90;;;;;;4826046;29;20099;-68
2022/09/10 11:36:11;;;;;;;7.97;6.22;;;20.80;99.90;;;;;;4841467;29;20058;-68
2022/09/10 11:39:19;;;;;;;7.40;6.43;;;20.90;99.90;;;;;;4825916;29;20065;-67
2022/09/10 11:41:47;;;;;;;7.78;5.63;;;20.90;99.90;;;;;;4825775;29;20572;-67
2022/09/10 11:45:15;;;;;;;7.25;5.97;;;20.90;99.90;;;;;;4825951;29;20058;-67
2022/09/10 11:47:49;;;;;;;7.15;5.43;;;20.90;99.90;;;;;;4768764;30;20074;-68
2022/09/10 11:50:21;;;;;;;6.80;5.35;;;21.00;99.90;;;;;;4840677;29;20054;-67
2022/09/10 11:52:48;;;;;;;6.88;5.43;;;21.00;99.90;;;;;;4823939;29;20069;-68
2022/09/10 11:55:16;;;;;;;6.65;5.63;;;21.10;99.90;;;;;;4825660;29;20106;-67
2022/09/10 11:57:58;;;;;;;6.60;5.70;;;21.20;99.90;;;;;;4842166;29;20118;-68
2022/09/10 12:00:24;;;;;;;;;;;21.20;99.90;;;;;;4823777;29;20107;-68
2022/09/10 12:07:03;;;;;;;7.15;5.20;;;21.30;99.90;;;;;;4822088;29;20057;-68
2022/09/10 12:10:18;;;;;;;6.68;3.95;;;21.60;99.90;;;;;;4820922;29;20560;-68
2022/09/10 12:12:48;;;;;;;6.93;6.07;;;21.80;99.90;;;;;;4801306;29;20054;-68
2022/09/10 12:15:30;;;;;;;9.30;5.80;;;21.90;99.90;;;;;;4807170;29;20050;-68
2022/09/10 12:18:20;;;;;;;8.27;6.07;;;21.80;99.90;;;;;;4825437;29;20399;-69
2022/09/10 12:20:53;;;;;;;9.02;5.43;;;21.80;99.90;;;;;;4825699;29;20515;-66
2022/09/10 12:23:35;;;;;;;6.82;5.72;;;21.80;99.90;;;;;;4824999;29;20054;-66
2022/09/10 12:26:10;;;;;;;7.22;5.88;;;21.80;99.90;;;;;;4828842;29;20054;-66
2022/09/10 12:28:41;;;;;;;7.88;5.13;;;21.70;99.90;;;;;;4829248;29;20054;-67
2022/09/10 12:31:15;;;;;;;6.25;5.65;;;21.50;99.90;;;;;;4828509;29;20121;-67
2022/09/10 12:33:43;;;;;;;7.05;5.78;;;21.50;99.90;;;;;;4845389;29;20075;-68
2022/09/10 12:36:33;;;;;;;8.57;5.65;;;21.40;99.90;;;;;;4844467;29;20049;-67
2022/09/10 12:39:21;;;;;;;6.88;5.78;;;21.20;99.90;;;;;;4827557;29;20054;-66
2022/09/10 12:46:06;;;;;;;6.90;5.45;;;21.00;99.90;;;;;;4826520;29;20225;-68
2022/09/10 12:52:15;;;;;;;7.20;5.72;;;21.20;99.90;;;;;;4840556;29;20456;-67
2022/09/10 12:55:28;;;;;;;6.78;5.78;;;21.30;99.90;;;;;;4825390;29;20133;-68
2022/09/10 12:58:16;;;;;;;6.00;5.13;;;21.30;99.90;;;;;;4826215;29;20050;-67
2022/09/10 13:04:23;;;;;;;7.50;4.40;;;21.30;99.90;;;;;;4842151;29;20173;-68
2022/09/10 13:07:00;;;;;;;6.70;5.60;;;21.30;99.90;;;;;;4834015;29;20150;-67
2022/09/10 13:14:02;;;;;;;6.43;5.03;;;21.40;99.90;;;;;;4835883;29;20067;-67
2022/09/10 13:16:28;;;;;;;6.50;4.90;;;21.40;99.90;;;;;;4824669;29;20058;-67
2022/09/10 13:19:23;;;;;;;5.28;4.57;;;21.40;99.90;;;;;;4827382;29;20052;-67
2022/09/10 13:21:50;;;;;;;5.20;4.70;;;21.50;99.90;;;;;;4823572;29;20053;-68
2022/09/10 13:28:39;;;;;;;5.13;3.90;;;21.40;99.90;;;;;;4839687;29;20048;-69
2022/09/10 13:39:58;;;;;;;5.38;4.38;;;21.30;99.90;;;;;;4969602;24;20036;-67
2022/09/10 14:06:47;;;;;;;6.32;3.50;;;21.30;99.90;;;;;;4833439;29;20110;-68
2022/09/10 14:09:15;;;;;;;5.63;3.78;;;21.30;99.90;;;;;;4848307;29;20514;-68
2022/09/10 14:12:07;;;;;;;3.83;3.20;;;21.30;99.90;;;;;;4831358;29;20054;-68
2022/09/10 14:40:18;;;;;;;5.18;3.50;;;21.60;99.90;;;;;;5197611;24;20058;-67
2022/09/10 14:42:45;;;;;;;4.50;3.28;;;21.60;99.90;;;;;;4849888;29;20045;-69
2022/09/10 14:45:41;;;;;;;4.93;3.65;;;21.50;99.90;;;;;;4818278;29;20054;-69
2022/09/10 14:48:48;;;;;;;4.82;3.97;;;21.30;99.90;;;;;;4851954;29;20057;-69
2022/09/10 14:51:38;;;;;;;4.00;3.45;;;21.10;99.90;;;;;;4852184;29;20057;-71
2022/09/10 14:54:55;;;;;;;4.80;3.10;;;20.90;99.90;;;;;;4834303;29;20050;-69
2022/09/10 15:13:45;;;;;;;4.30;2.85;;;20.70;99.90;;;;;;4852914;29;20061;-68
2022/09/10 15:16:39;;;;;;;3.35;2.30;;;20.80;99.90;;;;;;4843492;29;20045;-68
2022/09/10 15:19:05;;;;;;;5.50;2.58;;;21.00;99.90;;;;;;4841528;29;20137;-68
2022/09/10 15:28:23;;;;;;;2.40;2.20;;;21.00;99.90;;;;;;4843016;29;20427;-68
2022/09/10 15:30:50;;;;;;;4.00;2.60;;;21.00;99.90;;;;;;4840802;29;20106;-68
2022/09/10 15:33:15;;;;;;;4.32;2.30;;;20.90;99.90;;;;;;4852480;29;20055;-68
2022/09/10 15:35:41;;;;;;;5.00;2.75;;;20.90;99.90;;;;;;4841680;29;20050;-68
2022/09/10 15:38:11;;;;;;;7.70;3.90;;;20.90;99.90;;;;;;4843186;29;20053;-69
2022/09/10 15:40:37;;;;;;;4.10;3.50;;;20.90;99.90;;;;;;4844114;29;20058;-68